Time;durP1;ratioP1;P1;durP2;ratioP2;P2;SDS_P1;SDS_P2;PMS_P1;PMS_P2;Temp;Humidity;BMP_temperature;BMP_pressure;BME280_temperature;BME280_humidity;BME280_pressure;Samples;Min_cycle;Max_cycle;Signal;HPM_P1;HPM_P2
2023/09/11 00:00:38;;;;;;;15.95;13.20;;;22.20;99.90;;;;;;5013825;28;20212;-73
2023/09/11 00:03:04;;;;;;;15.35;13.75;;;22.10;99.90;;;;;;5013556;28;20195;-73
2023/09/11 00:05:30;;;;;;;15.73;13.10;;;22.10;99.90;;;;;;5013541;28;20371;-73
2023/09/11 00:07:55;;;;;;;19.98;13.43;;;22.10;99.90;;;;;;5012781;28;20176;-71
2023/09/11 00:10:21;;;;;;;18.17;13.38;;;22.00;99.90;;;;;;5013132;28;20180;-71
2023/09/11 00:12:47;;;;;;;17.33;13.82;;;22.00;99.90;;;;;;5012077;28;20180;-72
2023/09/11 00:15:12;;;;;;;22.20;13.80;;;21.90;99.90;;;;;;5011970;28;20627;-73
2023/09/11 00:17:38;;;;;;;16.80;13.32;;;21.90;99.90;;;;;;5013067;28;20188;-72
2023/09/11 00:20:10;;;;;;;14.85;13.32;;;21.90;99.90;;;;;;5012026;28;20338;-72
2023/09/11 00:22:36;;;;;;;18.02;14.55;;;21.80;99.90;;;;;;5011921;28;20180;-72
2023/09/11 00:25:02;;;;;;;20.83;13.77;;;21.80;99.90;;;;;;5013290;28;20195;-72
2023/09/11 00:27:27;;;;;;;16.98;15.10;;;21.80;99.90;;;;;;5012252;28;20275;-72
2023/09/11 00:29:53;;;;;;;19.77;14.85;;;21.80;99.90;;;;;;5013010;28;20183;-72
2023/09/11 00:32:19;;;;;;;20.42;15.60;;;21.80;99.90;;;;;;5013223;28;20176;-72
2023/09/11 00:34:44;;;;;;;18.00;14.05;;;21.80;99.90;;;;;;5012604;28;20235;-72
2023/09/11 00:37:10;;;;;;;18.48;15.55;;;21.80;99.90;;;;;;5011859;28;20659;-72
2023/09/11 00:39:35;;;;;;;16.52;14.95;;;21.80;99.90;;;;;;5012652;28;20541;-72
2023/09/11 00:42:01;;;;;;;23.50;14.93;;;21.80;99.90;;;;;;5011833;28;20176;-73
2023/09/11 00:44:26;;;;;;;18.13;15.85;;;21.80;99.90;;;;;;5012814;28;20239;-73
2023/09/11 00:46:53;;;;;;;17.65;15.93;;;21.70;99.90;;;;;;5012935;28;20183;-72
2023/09/11 00:49:20;;;;;;;18.85;15.93;;;21.70;99.90;;;;;;5012038;28;20198;-72
2023/09/11 00:51:46;;;;;;;17.40;15.60;;;21.70;99.90;;;;;;5011255;28;20196;-72
2023/09/11 00:54:13;;;;;;;19.33;16.02;;;21.60;99.90;;;;;;5012728;28;20243;-72
2023/09/11 00:56:39;;;;;;;18.13;16.40;;;21.60;99.90;;;;;;5012868;28;20526;-72
2023/09/11 00:59:05;;;;;;;19.83;16.08;;;21.60;99.90;;;;;;5010717;28;20179;-72
2023/09/11 01:01:31;;;;;;;19.70;16.38;;;21.60;99.90;;;;;;5012279;28;20246;-72
2023/09/11 01:03:58;;;;;;;18.65;15.20;;;21.60;99.90;;;;;;5012183;28;20238;-72
2023/09/11 01:06:24;;;;;;;19.65;17.02;;;21.50;99.90;;;;;;5011182;28;20184;-73
2023/09/11 01:08:51;;;;;;;19.52;16.85;;;21.50;99.90;;;;;;5011877;28;20177;-72
2023/09/11 01:11:19;;;;;;;17.98;15.55;;;21.50;99.90;;;;;;5012523;28;20175;-72
2023/09/11 01:13:45;;;;;;;20.50;15.98;;;21.40;99.90;;;;;;5010573;28;20208;-72
2023/09/11 01:16:39;;;;;;;18.38;15.60;;;21.40;99.90;;;;;;5012467;28;20176;-72
2023/09/11 01:19:33;;;;;;;19.38;16.15;;;21.40;99.90;;;;;;5010635;28;20259;-72
2023/09/11 01:22:31;;;;;;;20.52;17.08;;;21.30;99.90;;;;;;5011862;28;20576;-72
2023/09/11 01:25:02;;;;;;;18.23;16.33;;;21.30;99.90;;;;;;5012169;28;20188;-72
2023/09/11 01:27:43;;;;;;;20.27;16.05;;;21.30;99.90;;;;;;5012031;28;20659;-72
2023/09/11 01:30:11;;;;;;;19.25;16.65;;;21.20;99.90;;;;;;5011873;28;20183;-72
2023/09/11 01:32:38;;;;;;;18.63;16.45;;;21.20;99.90;;;;;;5012194;28;20176;-73
2023/09/11 01:35:04;;;;;;;19.20;16.55;;;21.20;99.90;;;;;;5011929;28;20658;-73
2023/09/11 01:37:31;;;;;;;17.70;15.82;;;21.10;99.90;;;;;;5011966;28;20184;-72
2023/09/11 01:39:57;;;;;;;17.42;15.75;;;21.10;99.90;;;;;;5011310;28;20287;-72
2023/09/11 01:42:30;;;;;;;19.48;16.38;;;21.10;99.90;;;;;;5011993;28;20176;-72
2023/09/11 01:44:58;;;;;;;22.02;16.17;;;21.10;99.90;;;;;;5010885;28;20208;-72
2023/09/11 01:47:25;;;;;;;19.83;17.75;;;21.10;99.90;;;;;;5011069;28;20173;-73
2023/09/11 01:49:53;;;;;;;24.27;17.02;;;21.10;99.90;;;;;;5010821;28;20176;-72
2023/09/11 01:52:19;;;;;;;18.60;16.08;;;21.10;99.90;;;;;;5011837;28;20173;-72
2023/09/11 01:54:45;;;;;;;25.05;17.45;;;21.00;99.90;;;;;;5011838;28;20200;-72
2023/09/11 01:57:11;;;;;;;20.27;17.77;;;21.00;99.90;;;;;;5011334;28;20203;-73
2023/09/11 01:59:36;;;;;;;19.42;17.50;;;21.00;99.90;;;;;;5011305;28;20176;-72
2023/09/11 02:02:02;;;;;;;20.25;17.17;;;21.00;99.90;;;;;;5011739;28;20655;-73
2023/09/11 02:04:28;;;;;;;20.98;17.60;;;21.00;99.90;;;;;;5011496;28;20204;-73
2023/09/11 02:06:54;;;;;;;23.25;17.65;;;21.00;99.90;;;;;;5011499;28;20184;-72
2023/09/11 02:09:19;;;;;;;19.50;17.42;;;21.00;99.90;;;;;;5010881;28;20198;-72
2023/09/11 02:11:45;;;;;;;21.35;18.02;;;20.90;99.90;;;;;;5011405;28;20586;-72
2023/09/11 02:14:11;;;;;;;20.77;18.80;;;20.90;99.90;;;;;;5010992;28;20578;-73
2023/09/11 02:16:36;;;;;;;24.20;18.45;;;20.90;99.90;;;;;;5011394;28;20214;-72
2023/09/11 02:19:02;;;;;;;21.42;18.27;;;20.90;99.90;;;;;;5011272;28;20539;-73
2023/09/11 02:21:27;;;;;;;21.40;17.75;;;20.90;99.90;;;;;;5011549;28;20722;-72
2023/09/11 02:23:53;;;;;;;26.50;18.42;;;20.90;99.90;;;;;;5011666;28;20278;-72
2023/09/11 02:26:19;;;;;;;20.15;18.00;;;20.80;99.90;;;;;;5009714;28;20188;-72
2023/09/11 02:28:45;;;;;;;22.83;17.90;;;20.80;99.90;;;;;;5009874;28;20568;-72
2023/09/11 02:31:12;;;;;;;21.65;18.42;;;20.70;99.90;;;;;;5011428;28;20263;-72
2023/09/11 02:33:37;;;;;;;22.05;19.83;;;20.70;99.90;;;;;;5010178;28;20200;-72
2023/09/11 02:36:03;;;;;;;21.02;18.65;;;20.60;99.90;;;;;;5011525;28;20187;-72
2023/09/11 02:38:29;;;;;;;25.77;17.88;;;20.60;99.90;;;;;;5011201;28;20188;-71
2023/09/11 02:40:55;;;;;;;23.52;19.23;;;20.60;99.90;;;;;;5011172;28;20263;-72
2023/09/11 02:43:20;;;;;;;21.67;17.98;;;20.60;99.90;;;;;;5011200;28;20200;-72
2023/09/11 02:45:46;;;;;;;20.10;18.15;;;20.60;99.90;;;;;;5011217;28;20176;-72
2023/09/11 02:48:12;;;;;;;20.90;18.67;;;20.60;99.90;;;;;;5011200;28;20176;-72
2023/09/11 02:50:38;;;;;;;21.02;18.67;;;20.50;99.90;;;;;;5009897;28;20192;-72
2023/09/11 02:53:09;;;;;;;21.45;18.95;;;20.50;99.90;;;;;;5011227;28;20196;-71
2023/09/11 02:55:38;;;;;;;21.90;19.20;;;20.50;99.90;;;;;;5010969;28;20602;-72
2023/09/11 02:58:04;;;;;;;21.55;19.45;;;20.50;99.90;;;;;;5011086;28;20180;-72
2023/09/11 03:00:33;;;;;;;24.70;19.67;;;20.50;99.90;;;;;;5013560;28;20203;-71
2023/09/11 03:02:59;;;;;;;23.50;20.45;;;20.50;99.90;;;;;;5014849;28;20230;-71
2023/09/11 03:05:24;;;;;;;22.77;20.48;;;20.50;99.90;;;;;;5014698;28;20187;-71
2023/09/11 03:07:50;;;;;;;21.42;19.05;;;20.50;99.90;;;;;;5014605;28;20222;-71
2023/09/11 03:10:16;;;;;;;25.83;21.67;;;20.40;99.90;;;;;;5014738;28;20178;-71
2023/09/11 03:12:41;;;;;;;23.15;20.55;;;20.40;99.90;;;;;;5014768;28;20210;-71
2023/09/11 03:15:07;;;;;;;22.60;20.00;;;20.40;99.90;;;;;;5014585;28;20690;-71
2023/09/11 03:17:33;;;;;;;24.63;20.50;;;20.40;99.90;;;;;;5013309;28;20659;-71
2023/09/11 03:19:58;;;;;;;24.30;19.65;;;20.40;99.90;;;;;;5014632;28;20215;-71
2023/09/11 03:22:24;;;;;;;30.27;21.52;;;20.30;99.90;;;;;;5014763;28;20644;-71
2023/09/11 03:24:50;;;;;;;26.08;20.42;;;20.30;99.90;;;;;;5012952;28;20212;-71
2023/09/11 03:27:16;;;;;;;25.63;21.75;;;20.20;99.90;;;;;;5014535;28;20299;-71
2023/09/11 03:29:41;;;;;;;28.45;20.58;;;20.20;99.90;;;;;;5014134;28;20556;-72
2023/09/11 03:32:07;;;;;;;24.55;20.60;;;20.20;99.90;;;;;;5014601;28;20643;-71
2023/09/11 03:34:32;;;;;;;22.90;20.45;;;20.20;99.90;;;;;;5014469;28;20290;-71
2023/09/11 03:36:58;;;;;;;21.52;19.02;;;20.20;99.90;;;;;;5014402;28;20322;-71
2023/09/11 03:39:24;;;;;;;24.67;19.58;;;20.20;99.90;;;;;;5013902;28;20655;-71
2023/09/11 03:41:50;;;;;;;22.60;20.17;;;20.10;99.90;;;;;;5014127;28;20639;-71
2023/09/11 03:44:16;;;;;;;22.33;18.30;;;20.10;99.90;;;;;;5014243;28;20196;-71
2023/09/11 03:46:42;;;;;;;22.85;19.15;;;20.10;99.90;;;;;;5014174;28;20635;-72
2023/09/11 03:49:07;;;;;;;21.98;18.63;;;20.10;99.90;;;;;;5013873;28;20176;-71
2023/09/11 03:51:33;;;;;;;23.75;18.90;;;20.00;99.90;;;;;;5013236;28;20266;-71
2023/09/11 03:53:58;;;;;;;24.38;18.33;;;20.00;99.90;;;;;;5013877;28;20204;-71
2023/09/11 03:56:24;;;;;;;21.35;18.27;;;20.00;99.90;;;;;;5014118;28;20549;-71
2023/09/11 03:58:51;;;;;;;20.52;16.42;;;20.10;99.90;;;;;;5013873;28;20184;-71
2023/09/11 04:01:17;;;;;;;20.58;16.70;;;20.00;99.90;;;;;;5013853;28;20204;-71
2023/09/11 04:03:43;;;;;;;19.48;17.38;;;20.00;99.90;;;;;;5013767;28;20215;-71
2023/09/11 04:06:09;;;;;;;24.58;16.77;;;20.00;99.90;;;;;;5013746;28;20177;-71
2023/09/11 04:08:35;;;;;;;19.67;16.17;;;19.90;99.90;;;;;;5013757;28;20203;-71
2023/09/11 04:11:03;;;;;;;19.40;17.25;;;19.90;99.90;;;;;;5012582;28;20172;-71
2023/09/11 04:13:28;;;;;;;20.10;17.55;;;19.90;99.90;;;;;;5013593;28;20208;-72
2023/09/11 04:15:54;;;;;;;21.15;16.23;;;19.80;99.90;;;;;;5013828;28;20188;-71
2023/09/11 04:18:20;;;;;;;23.90;17.08;;;19.80;99.90;;;;;;5013516;28;20278;-71
2023/09/11 04:20:45;;;;;;;20.85;16.45;;;19.80;99.90;;;;;;5013399;28;20215;-72
2023/09/11 04:23:11;;;;;;;18.17;16.27;;;19.80;99.90;;;;;;5013323;28;20191;-71
2023/09/11 04:25:37;;;;;;;19.67;16.90;;;19.80;99.90;;;;;;5013645;28;20247;-71
2023/09/11 04:28:02;;;;;;;21.35;16.17;;;19.80;99.90;;;;;;5013053;28;20243;-72
2023/09/11 04:30:28;;;;;;;17.88;15.90;;;19.80;99.90;;;;;;5013465;28;20176;-71
2023/09/11 04:32:54;;;;;;;20.47;17.00;;;19.70;99.90;;;;;;5013205;28;20195;-71
2023/09/11 04:35:20;;;;;;;19.80;16.33;;;19.70;99.90;;;;;;5012949;28;20762;-71
2023/09/11 04:37:45;;;;;;;17.60;15.80;;;19.60;99.90;;;;;;5012923;28;20184;-71
2023/09/11 04:40:11;;;;;;;22.52;17.33;;;19.60;99.90;;;;;;5013324;28;20200;-72
2023/09/11 04:42:37;;;;;;;20.08;17.33;;;19.60;99.90;;;;;;5013128;28;20263;-71
2023/09/11 04:45:04;;;;;;;21.35;16.55;;;19.60;99.90;;;;;;5013053;28;20658;-71
2023/09/11 04:47:34;;;;;;;18.33;16.33;;;19.60;99.90;;;;;;5012956;28;20188;-71
2023/09/11 04:50:00;;;;;;;17.73;15.60;;;19.60;99.90;;;;;;5012459;28;20252;-71
2023/09/11 04:52:25;;;;;;;20.80;15.50;;;19.50;99.90;;;;;;5012011;28;20204;-72
2023/09/11 04:54:51;;;;;;;20.50;15.77;;;19.50;99.90;;;;;;5012922;28;20671;-72
2023/09/11 04:57:17;;;;;;;18.80;15.70;;;19.50;99.90;;;;;;5012922;28;20176;-72
2023/09/11 04:59:43;;;;;;;21.67;16.17;;;19.50;99.90;;;;;;5012725;28;20180;-72
2023/09/11 05:02:09;;;;;;;18.23;15.82;;;19.50;99.90;;;;;;5012766;28;20234;-71
2023/09/11 05:04:35;;;;;;;19.83;16.40;;;19.50;99.90;;;;;;5012877;28;20196;-71
2023/09/11 05:07:01;;;;;;;19.53;15.47;;;19.50;99.90;;;;;;5012503;28;20179;-71
2023/09/11 05:09:27;;;;;;;20.50;14.50;;;19.50;99.90;;;;;;5011091;28;20210;-71
2023/09/11 05:11:53;;;;;;;17.10;15.30;;;19.50;99.90;;;;;;5012283;28;20607;-71
2023/09/11 05:14:18;;;;;;;16.53;14.70;;;19.50;99.90;;;;;;5012394;28;20346;-71
2023/09/11 05:16:44;;;;;;;19.30;15.60;;;19.50;99.90;;;;;;5012610;28;20172;-71
2023/09/11 05:19:09;;;;;;;19.20;15.53;;;19.50;99.90;;;;;;5010849;28;20180;-71
2023/09/11 05:21:36;;;;;;;18.48;15.48;;;19.50;99.90;;;;;;5011978;28;20664;-71
2023/09/11 05:24:03;;;;;;;21.17;14.80;;;19.50;99.90;;;;;;5011580;28;20685;-71
2023/09/11 05:26:29;;;;;;;19.45;15.60;;;19.40;99.90;;;;;;5012246;28;20654;-71
2023/09/11 05:28:55;;;;;;;17.60;14.82;;;19.40;99.90;;;;;;5011365;28;20180;-71
2023/09/11 05:31:21;;;;;;;16.27;14.57;;;19.40;99.90;;;;;;5012078;28;20184;-71
2023/09/11 05:33:46;;;;;;;15.83;14.17;;;19.50;99.90;;;;;;5010526;28;20199;-71
2023/09/11 05:36:12;;;;;;;15.43;13.93;;;19.50;99.90;;;;;;5012133;28;20180;-72
2023/09/11 05:38:38;;;;;;;18.05;13.15;;;19.50;99.90;;;;;;5011710;28;20259;-71
2023/09/11 05:41:03;;;;;;;17.37;14.07;;;19.50;99.90;;;;;;5011816;28;20239;-72
2023/09/11 05:43:29;;;;;;;15.60;13.85;;;19.50;99.90;;;;;;5011517;28;20334;-71
2023/09/11 05:45:55;;;;;;;15.43;13.30;;;19.60;99.90;;;;;;5011708;28;20195;-72
2023/09/11 05:48:21;;;;;;;16.63;12.55;;;19.60;99.90;;;;;;5011699;28;20168;-72
2023/09/11 05:50:46;;;;;;;14.75;12.63;;;19.60;99.90;;;;;;5009639;28;20202;-72
2023/09/11 05:53:12;;;;;;;19.42;14.07;;;19.70;99.90;;;;;;5004630;28;20271;-71
2023/09/11 05:55:39;;;;;;;14.75;12.85;;;19.70;99.90;;;;;;5011401;28;20176;-72
2023/09/11 05:58:04;;;;;;;13.77;12.20;;;19.70;99.90;;;;;;5004969;28;20188;-72
2023/09/11 06:00:30;;;;;;;13.52;12.13;;;19.70;99.90;;;;;;5011771;28;20215;-70
2023/09/11 06:02:56;;;;;;;16.25;11.82;;;19.80;99.90;;;;;;5009875;28;20682;-71
2023/09/11 06:05:23;;;;;;;12.10;10.90;;;19.80;99.90;;;;;;5010091;28;20545;-71
2023/09/11 06:07:49;;;;;;;15.65;11.73;;;19.90;99.90;;;;;;5010937;28;20180;-70
2023/09/11 06:10:14;;;;;;;14.07;12.10;;;19.90;99.90;;;;;;5011462;28;20267;-70
2023/09/11 06:12:40;;;;;;;17.33;11.93;;;20.00;99.90;;;;;;5011171;28;20191;-70
2023/09/11 06:15:06;;;;;;;13.63;11.38;;;20.10;99.90;;;;;;5002893;28;20204;-70
2023/09/11 06:17:35;;;;;;;16.30;11.65;;;20.10;99.90;;;;;;5011014;28;20647;-70
2023/09/11 06:20:01;;;;;;;16.15;11.25;;;20.20;99.90;;;;;;5010890;28;20181;-70
2023/09/11 06:22:27;;;;;;;21.40;12.18;;;20.40;99.90;;;;;;5011293;28;20184;-70
2023/09/11 06:24:52;;;;;;;163.68;26.27;;;20.60;99.90;;;;;;5011005;28;20196;-71
2023/09/11 06:27:19;;;;;;;15.68;10.05;;;20.80;99.90;;;;;;5011288;28;20239;-71
2023/09/11 06:29:44;;;;;;;12.73;9.02;;;21.20;99.90;;;;;;5009241;28;20663;-70
2023/09/11 06:32:15;;;;;;;10.32;8.38;;;21.60;99.90;;;;;;5009904;28;20195;-70
2023/09/11 06:34:40;;;;;;;12.35;8.15;;;22.00;99.90;;;;;;5012383;28;20215;-71
2023/09/11 06:37:09;;;;;;;11.32;8.23;;;22.50;99.90;;;;;;5014950;28;20188;-71
2023/09/11 06:39:34;;;;;;;10.25;7.18;;;22.80;99.90;;;;;;5014577;28;20192;-70
2023/09/11 06:42:00;;;;;;;10.23;8.07;;;23.20;99.90;;;;;;5014787;28;20215;-71
2023/09/11 06:44:26;;;;;;;10.25;7.55;;;23.60;99.90;;;;;;5015077;28;20196;-70
2023/09/11 06:46:51;;;;;;;11.40;7.25;;;24.00;99.90;;;;;;5014934;28;20180;-70
2023/09/11 06:49:18;;;;;;;14.05;7.30;;;24.30;99.90;;;;;;5013517;28;20655;-70
2023/09/11 06:51:43;;;;;;;8.57;7.28;;;24.50;99.90;;;;;;5015018;28;20231;-70
2023/09/11 06:54:12;;;;;;;10.57;6.90;;;24.60;99.90;;;;;;5015464;28;20195;-71
2023/09/11 06:56:40;;;;;;;13.25;6.97;;;24.80;99.90;;;;;;5013625;28;20176;-70
2023/09/11 06:59:06;;;;;;;9.30;7.25;;;24.90;99.90;;;;;;5013417;28;20215;-71
2023/09/11 07:01:32;;;;;;;9.68;7.10;;;25.10;99.90;;;;;;5012363;28;20243;-71
2023/09/11 07:03:57;;;;;;;15.15;7.07;;;25.20;28.70;;;;;;5014443;28;20204;-71
2023/09/11 07:06:24;;;;;;;14.95;7.75;;;25.50;1.00;;;;;;5014810;28;20252;-70
2023/09/11 07:08:49;;;;;;;9.35;6.47;;;25.70;1.00;;;;;;5014418;28;20184;-71
2023/09/11 07:11:18;;;;;;;8.45;6.55;;;26.10;1.00;;;;;;5013609;28;20206;-71
2023/09/11 07:13:44;;;;;;;9.15;7.07;;;26.50;1.00;;;;;;5013495;28;20890;-70
2023/09/11 07:16:09;;;;;;;9.35;6.10;;;26.80;1.00;;;;;;5014666;28;20199;-70
2023/09/11 07:18:35;;;;;;;11.02;6.55;;;27.00;99.90;;;;;;5014519;28;20184;-70
2023/09/11 07:21:00;;;;;;;8.18;6.32;;;27.10;24.00;;;;;;5014459;28;20298;-70
2023/09/11 07:23:27;;;;;;;8.90;6.03;;;27.30;11.40;;;;;;5022360;28;20600;-70
2023/09/11 07:25:56;;;;;;;13.00;6.18;;;27.50;1.00;;;;;;5014251;28;20247;-70
2023/09/11 07:28:26;;;;;;;11.02;6.50;;;27.70;1.00;;;;;;5014174;28;20191;-70
2023/09/11 07:30:53;;;;;;;8.98;6.30;;;28.00;1.00;;;;;;5014374;28;20186;-70
2023/09/11 07:33:19;;;;;;;16.92;6.70;;;28.20;1.00;;;;;;5014313;28;20271;-70
2023/09/11 07:35:45;;;;;;;9.65;6.18;;;28.40;1.00;;;;;;5014445;28;20180;-70
2023/09/11 07:38:11;;;;;;;9.57;5.55;;;28.70;1.00;;;;;;5013828;28;20176;-70
2023/09/11 07:40:37;;;;;;;13.07;6.38;;;28.90;1.00;;;;;;5014060;28;20204;-71
2023/09/11 07:43:03;;;;;;;9.23;5.82;;;29.00;1.00;;;;;;5013724;28;20172;-70
2023/09/11 07:45:28;;;;;;;9.60;6.00;;;29.10;1.00;;;;;;5013646;28;20237;-70
2023/09/11 07:47:54;;;;;;;9.70;5.55;;;29.20;1.00;;;;;;5020570;28;20496;-70
2023/09/11 07:50:20;;;;;;;10.02;5.32;;;29.40;1.00;;;;;;5013564;28;20187;-72
2023/09/11 07:52:46;;;;;;;12.43;6.00;;;29.70;1.00;;;;;;5013166;28;20198;-70
2023/09/11 07:55:11;;;;;;;8.05;5.40;;;30.00;1.00;;;;;;5013702;28;20675;-70
2023/09/11 07:57:40;;;;;;;8.23;4.88;;;30.40;1.00;;;;;;5013653;28;20180;-71
2023/09/11 08:00:07;;;;;;;9.25;5.75;;;30.60;1.00;;;;;;5013692;28;20190;-71
2023/09/11 08:02:33;;;;;;;10.32;5.25;;;31.00;1.00;;;;;;5013719;28;20180;-71
2023/09/11 08:04:59;;;;;;;8.05;4.80;;;31.30;1.00;;;;;;5013263;28;20574;-71
2023/09/11 08:07:25;;;;;;;6.88;4.55;;;31.60;1.00;;;;;;5013459;28;20180;-71
2023/09/11 08:09:54;;;;;;;12.35;6.15;;;31.80;1.00;;;;;;5012002;28;20176;-70
2023/09/11 08:12:20;;;;;;;6.55;5.20;;;31.80;1.00;;;;;;5013474;28;20180;-71
2023/09/11 08:14:46;;;;;;;14.25;6.10;;;32.00;1.00;;;;;;5013988;28;20204;-72
2023/09/11 08:17:12;;;;;;;11.35;5.70;;;32.20;1.00;;;;;;5013371;28;20651;-71
2023/09/11 08:19:38;;;;;;;10.35;4.85;;;32.40;1.00;;;;;;5013121;28;20206;-71
2023/09/11 08:22:04;;;;;;;9.25;5.35;;;32.40;1.00;;;;;;5012587;28;20683;-71
2023/09/11 08:24:30;;;;;;;11.20;5.15;;;32.20;1.00;;;;;;5013440;28;20632;-71
2023/09/11 08:26:55;;;;;;;10.02;5.28;;;32.10;1.00;;;;;;5012810;28;20271;-71
2023/09/11 08:29:21;;;;;;;10.43;5.68;;;32.30;1.00;;;;;;5012986;28;20263;-71
2023/09/11 08:31:47;;;;;;;6.38;4.63;;;32.50;1.00;;;;;;5013299;28;20218;-71
2023/09/11 08:34:13;;;;;;;9.50;4.95;;;32.60;1.00;;;;;;5013040;28;20215;-71
2023/09/11 08:36:39;;;;;;;7.68;5.22;;;32.80;1.00;;;;;;5012305;28;20263;-71
2023/09/11 08:39:05;;;;;;;13.73;5.85;;;33.10;1.00;;;;;;5012845;28;20180;-71
2023/09/11 08:41:31;;;;;;;9.05;5.20;;;33.30;1.00;;;;;;5012631;28;20207;-71
2023/09/11 08:43:56;;;;;;;9.00;4.82;;;33.20;1.00;;;;;;5012815;28;20204;-71
2023/09/11 08:46:23;;;;;;;8.20;5.00;;;33.30;1.00;;;;;;5012773;28;20172;-71
2023/09/11 08:48:53;;;;;;;7.25;4.63;;;33.40;1.00;;;;;;5012320;28;20263;-71
2023/09/11 08:51:31;;;;;;;8.48;5.00;;;33.70;1.00;;;;;;5012911;28;20204;-71
2023/09/11 08:54:00;;;;;;;11.50;5.18;;;34.10;1.00;;;;;;5012872;28;20200;-71
2023/09/11 08:56:26;;;;;;;12.27;4.75;;;34.20;1.00;;;;;;5013298;28;20246;-71
2023/09/11 08:58:52;;;;;;;8.65;5.47;;;34.30;99.90;;;;;;5012202;28;20184;-71
2023/09/11 09:01:20;;;;;;;10.85;5.40;;;34.60;99.90;;;;;;5013402;28;20211;-71
2023/09/11 09:03:48;;;;;;;9.40;4.80;;;34.70;99.90;;;;;;5013300;28;20250;-71
2023/09/11 09:06:16;;;;;;;11.63;5.40;;;34.80;99.90;;;;;;5012808;28;20172;-71
2023/09/11 09:08:43;;;;;;;8.30;5.22;;;34.70;99.90;;;;;;5012626;28;20607;-71
2023/09/11 09:11:09;;;;;;;11.65;5.53;;;34.50;99.90;;;;;;5011176;28;20184;-71
2023/09/11 09:13:35;;;;;;;9.15;4.93;;;34.60;99.90;;;;;;5012224;28;20206;-71
2023/09/11 09:16:01;;;;;;;12.88;4.88;;;34.80;99.90;;;;;;5012361;28;20267;-71
2023/09/11 09:18:26;;;;;;;11.10;4.60;;;34.90;99.90;;;;;;5012200;28;20267;-71
2023/09/11 09:20:52;;;;;;;8.40;4.75;;;35.10;99.90;;;;;;5020403;28;20608;-71
2023/09/11 09:23:18;;;;;;;9.25;5.55;;;35.20;99.90;;;;;;5015745;28;20373;-71
2023/09/11 09:25:43;;;;;;;7.35;5.35;;;35.10;99.90;;;;;;5016578;28;20230;-73
2023/09/11 09:28:25;;;;;;;9.07;4.95;;;34.90;99.90;;;;;;5009973;28;20185;-72
2023/09/11 09:30:55;;;;;;;9.25;4.97;;;34.90;99.90;;;;;;5012071;28;20252;-72
2023/09/11 09:33:21;;;;;;;7.55;4.25;;;35.10;99.90;;;;;;5011860;28;20204;-73
2023/09/11 09:35:46;;;;;;;9.48;5.15;;;35.60;99.90;;;;;;5010643;28;20652;-73
2023/09/11 09:38:13;;;;;;;10.38;4.93;;;35.80;99.90;;;;;;5011242;28;20187;-73
2023/09/11 09:40:39;;;;;;;13.13;5.35;;;35.80;99.90;;;;;;5011932;28;20231;-73
2023/09/11 09:43:15;;;;;;;13.55;5.15;;;35.50;99.90;;;;;;5011244;28;20203;-73
2023/09/11 09:45:44;;;;;;;13.85;4.97;;;35.60;99.90;;;;;;5010408;28;20657;-74
2023/09/11 09:48:14;;;;;;;10.35;4.60;;;35.80;99.90;;;;;;5011271;28;20258;-73
2023/09/11 09:50:57;;;;;;;11.93;5.28;;;35.50;99.90;;;;;;5009891;28;20200;-73
2023/09/11 09:53:27;;;;;;;12.07;4.72;;;35.50;99.90;;;;;;5011584;28;20214;-73
2023/09/11 09:55:55;;;;;;;9.75;4.82;;;35.70;99.90;;;;;;5011682;28;20184;-73
2023/09/11 09:58:28;;;;;;;10.30;5.32;;;35.90;99.90;;;;;;5011258;28;20184;-74
2023/09/11 10:01:13;;;;;;;5.93;4.90;;;36.00;99.90;;;;;;5011651;28;20250;-73
2023/09/11 10:03:46;;;;;;;9.85;5.00;;;36.20;99.90;;;;;;5011402;28;20252;-74
2023/09/11 10:06:21;;;;;;;9.10;5.65;;;36.40;99.90;;;;;;5013857;28;20226;-74
2023/09/11 10:09:02;;;;;;;12.32;5.28;;;36.20;99.90;;;;;;5015548;28;20180;-73
2023/09/11 10:11:30;;;;;;;10.65;4.70;;;36.20;99.90;;;;;;5011227;28;20589;-74
2023/09/11 10:14:00;;;;;;;14.20;4.88;;;36.40;99.90;;;;;;5011168;28;20563;-74
2023/09/11 10:16:27;;;;;;;14.95;5.78;;;36.60;99.90;;;;;;5015934;28;20211;-73
2023/09/11 10:18:54;;;;;;;9.60;5.35;;;36.60;99.90;;;;;;5014642;28;20663;-73
2023/09/11 10:21:20;;;;;;;10.68;5.50;;;36.50;99.90;;;;;;5011303;28;20761;-73
2023/09/11 10:23:48;;;;;;;9.10;5.00;;;36.20;99.90;;;;;;5011067;28;20466;-72
2023/09/11 10:26:29;;;;;;;11.32;6.43;;;36.10;99.90;;;;;;5010443;28;20287;-73
2023/09/11 10:28:58;;;;;;;11.70;6.05;;;35.70;99.90;;;;;;5019106;28;20304;-74
2023/09/11 10:31:28;;;;;;;7.28;5.55;;;35.50;99.90;;;;;;5011082;28;20191;-74
2023/09/11 10:33:56;;;;;;;11.18;6.43;;;35.40;99.90;;;;;;5011047;28;20196;-74
2023/09/11 10:36:25;;;;;;;14.02;6.47;;;35.20;99.90;;;;;;5010969;28;20184;-74
2023/09/11 10:38:55;;;;;;;9.00;6.28;;;34.90;99.90;;;;;;5011040;28;20186;-73
2023/09/11 10:41:22;;;;;;;8.10;5.70;;;34.70;99.90;;;;;;5013537;28;20211;-73
2023/09/11 10:43:48;;;;;;;14.32;6.53;;;35.00;99.90;;;;;;5015057;28;20594;-73
2023/09/11 10:46:21;;;;;;;11.02;6.15;;;35.00;99.90;;;;;;5011100;28;20180;-72
2023/09/11 10:48:46;;;;;;;12.90;6.43;;;34.90;99.90;;;;;;5010999;28;20176;-73
2023/09/11 10:51:13;;;;;;;10.30;5.93;;;34.70;99.90;;;;;;5010865;28;20214;-74
2023/09/11 10:53:40;;;;;;;9.88;5.28;;;34.50;99.90;;;;;;5010795;28;20231;-74
2023/09/11 10:56:07;;;;;;;7.47;5.00;;;34.20;99.90;;;;;;5009664;28;20267;-73
2023/09/11 10:58:34;;;;;;;7.93;4.68;;;34.00;99.90;;;;;;5011005;28;20188;-73
2023/09/11 11:01:00;;;;;;;9.10;4.70;;;33.80;99.90;;;;;;5009592;28;20698;-73
2023/09/11 11:03:28;;;;;;;8.80;4.97;;;33.60;99.90;;;;;;5011092;28;20211;-73
2023/09/11 11:05:55;;;;;;;11.35;5.65;;;33.40;99.90;;;;;;5018970;28;20187;-73
2023/09/11 11:08:21;;;;;;;8.07;4.63;;;33.30;99.90;;;;;;5010886;28;20183;-74
2023/09/11 11:10:50;;;;;;;14.52;5.90;;;33.10;99.90;;;;;;5011178;28;20180;-74
2023/09/11 11:13:16;;;;;;;11.30;5.20;;;33.00;99.90;;;;;;5009396;28;20201;-73
2023/09/11 11:15:42;;;;;;;10.80;5.30;;;33.00;99.90;;;;;;5010867;28;20591;-73
2023/09/11 11:18:12;;;;;;;7.78;5.15;;;33.00;99.90;;;;;;5010553;28;20192;-74
2023/09/11 11:21:07;;;;;;;7.95;5.20;;;33.10;99.90;;;;;;5011662;28;20239;-73
2023/09/11 11:23:34;;;;;;;14.80;5.68;;;32.80;99.90;;;;;;5006922;28;20684;-74
2023/09/11 11:26:04;;;;;;;7.93;5.35;;;32.90;99.90;;;;;;5022757;28;20187;-73
2023/09/11 11:28:39;;;;;;;8.20;4.70;;;33.10;99.90;;;;;;5014512;28;20238;-73
2023/09/11 11:31:08;;;;;;;7.88;5.35;;;33.30;99.90;;;;;;5013098;28;20180;-73
2023/09/11 11:33:36;;;;;;;9.80;5.05;;;33.30;99.90;;;;;;5014321;28;20196;-73
2023/09/11 11:36:02;;;;;;;14.88;5.05;;;33.40;99.90;;;;;;5014129;28;20266;-73
2023/09/11 11:38:28;;;;;;;7.97;5.35;;;33.50;99.90;;;;;;5014597;28;20544;-74
2023/09/11 11:40:54;;;;;;;7.50;5.00;;;33.40;99.90;;;;;;5015100;28;20624;-73
2023/09/11 11:43:22;;;;;;;10.75;5.47;;;33.50;99.90;;;;;;5014893;28;20679;-74
2023/09/11 11:45:48;;;;;;;8.23;4.78;;;33.60;99.90;;;;;;5015202;28;20176;-73
2023/09/11 11:48:15;;;;;;;12.40;5.82;;;33.70;99.90;;;;;;5014105;28;20176;-74
2023/09/11 11:50:45;;;;;;;9.57;4.72;;;33.60;99.90;;;;;;5014781;28;20187;-72
2023/09/11 11:53:15;;;;;;;12.05;5.20;;;33.60;99.90;;;;;;5014147;28;20525;-73
2023/09/11 11:55:41;;;;;;;10.05;5.60;;;33.60;99.90;;;;;;5022136;28;20599;-74
2023/09/11 11:58:09;;;;;;;8.60;5.38;;;33.70;99.90;;;;;;5013678;28;20219;-73
2023/09/11 12:00:35;;;;;;;12.98;5.78;;;33.90;99.90;;;;;;5013865;28;20291;-73
2023/09/11 12:03:03;;;;;;;8.40;5.22;;;34.10;99.90;;;;;;5013430;28;20210;-73
2023/09/11 12:05:29;;;;;;;11.85;5.10;;;34.30;99.90;;;;;;5013926;28;20173;-74
2023/09/11 12:07:55;;;;;;;7.35;5.38;;;34.50;99.90;;;;;;5013633;28;20604;-73
2023/09/11 12:10:20;;;;;;;6.38;4.50;;;34.50;99.90;;;;;;5021748;28;20187;-73
2023/09/11 12:12:46;;;;;;;8.95;5.00;;;34.60;99.90;;;;;;5013749;28;20492;-73
2023/09/11 12:15:11;;;;;;;13.00;5.15;;;34.70;99.90;;;;;;5013092;28;20640;-73
2023/09/11 12:17:50;;;;;;;7.80;4.90;;;34.80;99.90;;;;;;5013303;28;20714;-73
2023/09/11 12:20:18;;;;;;;5.78;4.60;;;35.00;99.90;;;;;;5012124;28;20172;-73
2023/09/11 12:22:46;;;;;;;6.28;4.57;;;35.20;99.90;;;;;;5012964;28;20669;-74
2023/09/11 12:25:12;;;;;;;10.00;4.75;;;35.10;99.90;;;;;;5013128;28;20664;-73
2023/09/11 12:27:38;;;;;;;7.40;4.80;;;35.10;99.90;;;;;;5012685;28;20192;-73
2023/09/11 12:30:06;;;;;;;7.10;4.93;;;35.20;99.90;;;;;;5012485;28;20176;-74
2023/09/11 12:32:33;;;;;;;10.70;5.10;;;35.50;99.90;;;;;;5010295;28;20183;-73
2023/09/11 12:34:59;;;;;;;9.60;4.93;;;35.30;99.90;;;;;;5013084;28;20188;-72